createdAt,value
2022-08-12T00:02:02.810Z,20.03
2022-08-12T00:04:49.885Z,20.01
2022-08-12T00:07:36.021Z,20.04
2022-08-12T00:10:21.415Z,20.03
2022-08-12T00:13:06.731Z,20.00
2022-08-12T00:15:52.096Z,19.95
2022-08-12T00:18:37.077Z,19.94
2022-08-12T00:21:22.291Z,19.83
2022-08-12T00:24:07.865Z,19.76
2022-08-12T00:26:54.821Z,19.60
2022-08-12T00:29:39.642Z,19.32
2022-08-12T00:32:36.156Z,19.13
2022-08-12T00:35:24.460Z,18.90
2022-08-12T00:38:22.521Z,18.85
2022-08-12T00:41:07.653Z,18.68
2022-08-12T00:43:35.871Z,18.60
2022-08-12T00:46:22.116Z,18.51
2022-08-12T00:48:49.704Z,18.54
2022-08-12T00:51:16.890Z,18.37
2022-08-12T00:53:43.597Z,18.30
2022-08-12T00:56:10.984Z,18.24
2022-08-12T00:58:44.181Z,18.17
2022-08-12T01:01:10.668Z,18.11
2022-08-12T01:03:59.399Z,18.04
2022-08-12T01:06:46.162Z,17.96
2022-08-12T01:09:37.706Z,17.85
2022-08-12T01:12:06.417Z,17.78
2022-08-12T01:14:33.197Z,17.68
2022-08-12T01:16:59.858Z,17.63
2022-08-12T01:19:26.413Z,17.61
2022-08-12T01:22:11.844Z,17.49
2022-08-12T01:24:57.045Z,17.49
2022-08-12T01:27:25.869Z,17.43
2022-08-12T01:29:54.046Z,17.41
2022-08-12T01:32:23.824Z,17.35
2022-08-12T01:35:01.301Z,17.28
2022-08-12T01:37:30.576Z,17.21
2022-08-12T01:40:36.793Z,17.16
2022-08-12T01:42:49.072Z,17.14
2022-08-12T01:45:17.696Z,17.15
2022-08-12T01:48:03.902Z,17.01
2022-08-12T01:50:50.487Z,16.87
2022-08-12T01:53:20.939Z,16.90
2022-08-12T01:55:49.368Z,16.87
2022-08-12T01:58:27.280Z,16.73
2022-08-12T02:01:01.315Z,16.75
2022-08-12T02:04:02.442Z,16.71
2022-08-12T02:06:59.188Z,16.63
2022-08-12T02:10:00.943Z,16.53
2022-08-12T02:12:49.261Z,16.53
2022-08-12T02:15:39.077Z,16.42
2022-08-12T02:18:40.069Z,16.32
2022-08-12T02:21:30.874Z,16.27
2022-08-12T02:23:59.357Z,16.24
2022-08-12T02:26:30.224Z,16.27
2022-08-12T02:28:57.330Z,16.22
2022-08-12T02:31:26.849Z,16.17
2022-08-12T02:33:54.460Z,16.19
2022-08-12T02:36:21.169Z,16.25
2022-08-12T02:38:49.343Z,16.26
2022-08-12T02:41:18.735Z,16.08
2022-08-12T02:43:52.930Z,16.07
2022-08-12T02:46:25.923Z,15.98
2022-08-12T02:48:57.655Z,15.93
2022-08-12T02:51:30.666Z,15.73
2022-08-12T02:54:04.978Z,15.65
2022-08-12T02:56:50.463Z,15.58
2022-08-12T02:59:21.401Z,15.57
2022-08-12T03:01:51.156Z,15.63
2022-08-12T03:04:40.227Z,15.60
2022-08-12T03:07:22.015Z,15.60
2022-08-12T03:10:13.045Z,15.66
2022-08-12T03:12:49.903Z,15.74
2022-08-12T03:15:22.119Z,15.73
2022-08-12T03:18:24.949Z,15.69
2022-08-12T03:20:41.624Z,15.43
2022-08-12T03:23:29.357Z,15.24
2022-08-12T03:26:02.432Z,15.06
2022-08-12T03:28:50.518Z,14.92
2022-08-12T03:31:32.379Z,14.94
2022-08-12T03:34:10.880Z,15.01
2022-08-12T03:36:39.450Z,15.13
2022-08-12T03:39:15.958Z,15.19
2022-08-12T03:41:58.428Z,15.19
2022-08-12T03:44:57.320Z,15.17
2022-08-12T03:47:51.338Z,15.14
2022-08-12T03:50:37.323Z,15.06
2022-08-12T03:53:26.044Z,15.08
2022-08-12T03:56:11.527Z,15.08
2022-08-12T03:58:57.105Z,15.02
2022-08-12T04:01:25.912Z,14.91
2022-08-12T04:03:52.632Z,14.83
2022-08-12T04:06:34.930Z,14.76
2022-08-12T04:09:14.675Z,14.76
2022-08-12T04:12:02.849Z,14.84
2022-08-12T04:14:29.538Z,14.83
2022-08-12T04:16:57.116Z,14.88
2022-08-12T04:19:26.079Z,14.90
2022-08-12T04:22:01.391Z,14.86
2022-08-12T04:24:31.917Z,14.91
2022-08-12T04:26:58.339Z,14.95
2022-08-12T04:30:31.590Z,14.99
2022-08-12T04:32:14.002Z,15.04
2022-08-12T04:34:41.830Z,15.11
2022-08-12T04:37:08.287Z,15.26
2022-08-12T04:39:35.218Z,15.33
2022-08-12T04:42:01.717Z,15.39
2022-08-12T04:44:28.481Z,15.48
2022-08-12T04:46:55.939Z,15.60
2022-08-12T04:49:24.274Z,15.61
2022-08-12T04:51:57.604Z,15.69
2022-08-12T04:54:27.062Z,15.84
2022-08-12T04:57:03.925Z,15.95
2022-08-12T04:59:46.804Z,16.05
2022-08-12T05:02:16.795Z,16.21
2022-08-12T05:04:48.361Z,16.37
2022-08-12T05:07:14.820Z,16.39
2022-08-12T05:10:00.998Z,16.57
2022-08-12T05:12:34.156Z,16.82
2022-08-12T05:15:01.040Z,17.12
2022-08-12T05:17:28.358Z,17.44
2022-08-12T05:19:57.331Z,17.77
2022-08-12T05:22:26.277Z,18.13
2022-08-12T05:24:52.918Z,18.46
2022-08-12T05:27:19.711Z,18.69
2022-08-12T05:30:07.325Z,19.01
2022-08-12T05:32:36.667Z,19.33
2022-08-12T05:35:06.776Z,19.51
2022-08-12T05:37:34.888Z,19.76
2022-08-12T05:40:06.856Z,20.08
2022-08-12T05:42:36.808Z,20.34
2022-08-12T05:45:03.802Z,20.49
2022-08-12T05:47:44.819Z,20.59
2022-08-12T05:50:16.933Z,20.59
2022-08-12T05:52:44.029Z,20.75
2022-08-12T05:55:11.757Z,21.00
2022-08-12T05:57:39.196Z,20.94
2022-08-12T06:00:06.824Z,20.93
2022-08-12T06:02:35.098Z,21.08
2022-08-12T06:05:02.689Z,21.45
2022-08-12T06:08:00.661Z,21.77
2022-08-12T06:10:32.333Z,22.00
2022-08-12T06:13:01.071Z,22.49
2022-08-12T06:15:28.129Z,22.71
2022-08-12T06:17:55.501Z,22.75
2022-08-12T06:20:29.369Z,23.13
2022-08-12T06:22:57.088Z,23.41
2022-08-12T06:25:27.817Z,23.82
2022-08-12T06:28:07.915Z,24.00
2022-08-12T06:30:39.357Z,24.35
2022-08-12T06:33:24.507Z,24.43
2022-08-12T06:35:57.310Z,24.70
2022-08-12T06:38:25.941Z,25.04
2022-08-12T06:41:13.566Z,25.26
2022-08-12T06:44:06.335Z,25.43
2022-08-12T06:46:29.801Z,25.47
2022-08-12T06:48:59.651Z,25.80
2022-08-12T06:51:28.947Z,25.97
2022-08-12T06:53:56.182Z,25.83
2022-08-12T06:56:39.970Z,25.69
2022-08-12T06:59:11.628Z,26.14
2022-08-12T07:01:38.695Z,26.72
2022-08-12T07:04:26.345Z,26.62
2022-08-12T07:06:51.688Z,26.85
2022-08-12T07:10:00.107Z,27.06
2022-08-12T07:12:04.839Z,27.60
2022-08-12T07:14:31.594Z,27.75
2022-08-12T07:17:02.256Z,27.16
2022-08-12T07:19:40.417Z,27.65
2022-08-12T07:22:07.940Z,27.35
2022-08-12T07:24:34.370Z,27.00
2022-08-12T07:27:00.854Z,26.68
2022-08-12T07:30:03.719Z,26.57
2022-08-12T07:32:15.191Z,26.88
2022-08-12T07:34:42.625Z,26.87
2022-08-12T07:37:09.660Z,26.96
2022-08-12T07:39:36.153Z,27.18
2022-08-12T07:42:03.222Z,27.24
2022-08-12T07:44:29.842Z,27.18
2022-08-12T07:46:56.332Z,27.61
2022-08-12T07:49:24.712Z,27.98
2022-08-12T07:51:51.149Z,27.59
2022-08-12T07:54:17.684Z,28.32
2022-08-12T07:56:44.221Z,28.23
2022-08-12T07:59:11.226Z,28.58
2022-08-12T08:01:38.820Z,28.93
2022-08-12T08:04:24.546Z,28.68
2022-08-12T08:06:51.164Z,28.65
2022-08-12T08:09:21.244Z,28.08
2022-08-12T08:12:06.930Z,28.18
2022-08-12T08:14:33.640Z,28.10
2022-08-12T08:17:03.530Z,28.14
2022-08-12T08:19:33.623Z,28.02
2022-08-12T08:22:20.109Z,28.27
2022-08-12T08:25:35.037Z,28.65
2022-08-12T08:27:53.371Z,28.78
2022-08-12T08:30:20.231Z,28.47
2022-08-12T08:32:46.711Z,28.72
2022-08-12T08:35:14.691Z,29.22
2022-08-12T08:37:46.247Z,29.47
2022-08-12T08:40:33.652Z,29.35
2022-08-12T08:43:00.130Z,28.53
2022-08-12T08:45:28.441Z,28.71
2022-08-12T08:47:58.378Z,29.08
2022-08-12T08:50:27.256Z,29.26
2022-08-12T08:52:53.793Z,29.35
2022-08-12T08:55:27.440Z,29.42
2022-08-12T08:57:59.961Z,29.41
2022-08-12T09:00:26.705Z,29.69
2022-08-12T09:02:59.354Z,29.93
2022-08-12T09:05:27.250Z,29.83
2022-08-12T09:08:09.133Z,29.56
2022-08-12T09:10:45.188Z,29.46
2022-08-12T09:14:10.170Z,28.99
2022-08-12T09:16:21.742Z,29.14
2022-08-12T09:18:52.199Z,29.50
2022-08-12T09:21:19.381Z,29.26
2022-08-12T09:30:11.331Z,29.60
2022-08-12T09:32:11.625Z,29.24
2022-08-12T09:34:56.736Z,29.31
2022-08-12T09:37:26.552Z,29.18
2022-08-12T09:40:06.163Z,30.31
2022-08-12T09:43:16.808Z,30.00
2022-08-12T09:46:11.713Z,29.39
2022-08-12T09:48:40.219Z,29.63
2022-08-12T09:51:22.163Z,29.80
2022-08-12T09:54:05.442Z,30.27
2022-08-12T09:56:58.097Z,29.94
2022-08-12T10:00:15.968Z,29.80
2022-08-12T10:02:42.913Z,30.13
2022-08-12T10:04:56.399Z,30.81
2022-08-12T10:07:25.161Z,31.14
2022-08-12T10:09:57.288Z,31.55
2022-08-12T10:13:07.082Z,30.51
2022-08-12T10:16:02.601Z,30.24
2022-08-12T10:18:20.030Z,30.84
2022-08-12T10:20:46.731Z,30.63
2022-08-12T10:23:13.246Z,30.73
2022-08-12T10:26:35.823Z,30.69
2022-08-12T10:30:01.481Z,30.57
2022-08-12T10:32:21.107Z,31.43
2022-08-12T10:34:40.444Z,30.83
2022-08-12T10:38:03.716Z,31.28
2022-08-12T10:40:11.431Z,31.09
2022-08-12T10:43:00.656Z,30.96
2022-08-12T10:45:27.675Z,31.16
2022-08-12T10:48:07.145Z,31.24
2022-08-12T10:51:01.235Z,31.52
2022-08-12T10:53:44.937Z,31.75
2022-08-12T10:56:17.627Z,31.43
2022-08-12T10:58:46.891Z,31.18
2022-08-12T11:01:50.440Z,31.63
2022-08-12T11:04:35.646Z,31.92
2022-08-12T11:07:03.453Z,31.58
2022-08-12T11:09:51.321Z,31.44
2022-08-12T11:12:56.759Z,31.49
2022-08-12T11:15:19.492Z,32.08
2022-08-12T11:17:52.970Z,31.94
2022-08-12T11:20:22.154Z,32.02
2022-08-12T11:23:03.949Z,32.72
2022-08-12T11:25:55.847Z,32.56
2022-08-12T11:28:33.383Z,31.86
2022-08-12T11:31:01.947Z,31.55
2022-08-12T11:34:06.624Z,31.78
2022-08-12T11:36:15.952Z,31.92
2022-08-12T11:38:43.513Z,32.51
2022-08-12T11:41:28.109Z,32.04
2022-08-12T11:44:35.301Z,31.76
2022-08-12T11:46:47.132Z,32.17
2022-08-12T11:49:20.474Z,31.48
2022-08-12T11:51:58.691Z,31.72
2022-08-12T11:54:25.142Z,32.10
2022-08-12T11:56:59.675Z,32.03
2022-08-12T12:02:18.968Z,31.68
2022-08-12T12:04:46.805Z,31.35
2022-08-12T12:07:20.110Z,32.24
2022-08-12T12:09:51.846Z,31.77
2022-08-12T12:12:19.780Z,31.48
2022-08-12T12:14:55.043Z,32.07
2022-08-12T12:17:24.602Z,32.76
2022-08-12T12:19:53.125Z,32.42
2022-08-12T12:22:23.557Z,32.39
2022-08-12T12:24:54.225Z,32.69
2022-08-12T12:28:00.034Z,32.61
2022-08-12T12:30:19.553Z,32.19
2022-08-12T12:32:54.397Z,31.83
2022-08-12T12:36:19.857Z,31.48
2022-08-12T12:38:12.825Z,31.32
2022-08-12T12:40:43.780Z,31.34
2022-08-12T12:43:11.523Z,31.51
2022-08-12T12:45:39.449Z,31.92
2022-08-12T12:48:14.098Z,31.84
2022-08-12T12:50:45.507Z,32.09
2022-08-12T12:54:06.490Z,32.20
2022-08-12T12:56:15.791Z,32.04
2022-08-12T12:58:43.470Z,32.07
2022-08-12T13:01:26.570Z,32.06
2022-08-12T13:04:02.109Z,31.88
2022-08-12T13:06:31.536Z,31.78
2022-08-12T13:09:02.504Z,31.60
2022-08-12T13:11:40.641Z,31.00
2022-08-12T13:14:29.165Z,30.59
2022-08-12T13:17:02.451Z,31.21
2022-08-12T13:19:44.537Z,31.22
2022-08-12T13:22:20.530Z,31.21
2022-08-12T13:24:54.541Z,30.97
2022-08-12T13:27:23.116Z,31.00
2022-08-12T13:29:58.165Z,30.78
2022-08-12T13:32:31.609Z,30.43
2022-08-12T13:35:04.459Z,30.60
2022-08-12T13:37:54.893Z,30.28
2022-08-12T13:40:22.719Z,30.70
2022-08-12T13:42:57.643Z,30.24
2022-08-12T13:45:29.770Z,30.55
2022-08-12T13:47:58.242Z,30.40
2022-08-12T13:50:32.800Z,30.20
2022-08-12T13:53:16.659Z,30.42
2022-08-12T13:55:59.522Z,30.54
2022-08-12T13:58:28.812Z,30.38
2022-08-12T14:00:58.261Z,30.23
2022-08-12T14:03:28.462Z,30.08
2022-08-12T14:06:15.645Z,29.79
2022-08-12T14:08:43.246Z,29.58
2022-08-12T14:11:12.574Z,29.25
2022-08-12T14:14:04.041Z,29.33
2022-08-12T14:16:46.804Z,29.25
2022-08-12T14:19:21.861Z,28.92
2022-08-12T14:21:59.259Z,29.22
2022-08-12T14:24:30.853Z,29.30
2022-08-12T14:26:58.628Z,28.96
2022-08-12T14:29:55.681Z,28.81
2022-08-12T14:32:16.705Z,29.00
2022-08-12T14:34:44.163Z,29.05
2022-08-12T14:37:13.149Z,28.69
2022-08-12T14:39:57.299Z,28.88
2022-08-12T14:42:26.085Z,28.87
2022-08-12T14:45:00.074Z,28.85
2022-08-12T14:47:34.862Z,28.86
2022-08-12T14:50:58.402Z,28.64
2022-08-12T14:54:55.877Z,28.55
2022-08-12T14:58:25.344Z,28.46
2022-08-12T15:01:11.388Z,28.51
2022-08-12T15:03:56.932Z,28.56
2022-08-12T15:06:44.546Z,28.42
2022-08-12T15:09:15.901Z,28.21
2022-08-12T15:11:54.333Z,28.09
2022-08-12T15:14:21.695Z,28.26
2022-08-12T15:16:48.772Z,28.47
2022-08-12T15:20:31.633Z,28.13
2022-08-12T15:22:38.060Z,28.14
2022-08-12T15:24:49.841Z,28.01
2022-08-12T15:27:22.471Z,28.13
2022-08-12T15:29:58.692Z,28.05
2022-08-12T15:32:32.476Z,28.09
2022-08-12T15:35:00.772Z,27.99
2022-08-12T15:38:08.175Z,28.01
2022-08-12T15:40:14.120Z,28.09
2022-08-12T15:42:40.725Z,27.99
2022-08-12T15:45:21.241Z,27.79
2022-08-12T15:47:53.509Z,27.79
2022-08-12T15:50:41.162Z,27.90
2022-08-12T15:53:15.246Z,27.81
2022-08-12T15:55:46.125Z,27.92
2022-08-12T15:58:13.517Z,27.86
2022-08-12T16:00:43.624Z,27.82
2022-08-12T16:03:13.678Z,27.60
2022-08-12T16:06:12.576Z,27.65
2022-08-12T16:08:36.452Z,27.76
2022-08-12T16:11:07.170Z,27.47
2022-08-12T16:13:44.363Z,27.43
2022-08-12T16:16:22.503Z,27.54
2022-08-12T16:18:52.745Z,27.61
2022-08-12T16:21:51.882Z,27.54
2022-08-12T16:24:11.103Z,27.52
2022-08-12T16:26:40.739Z,27.55
2022-08-12T16:29:15.488Z,27.45
2022-08-12T16:31:43.940Z,27.27
2022-08-12T16:34:25.762Z,27.38
2022-08-12T16:37:03.230Z,27.41
2022-08-12T16:39:59.558Z,27.42
2022-08-12T16:42:22.653Z,27.27
2022-08-12T16:44:55.393Z,27.18
2022-08-12T16:47:23.455Z,27.14
2022-08-12T16:49:55.703Z,27.07
2022-08-12T16:52:22.422Z,26.98
2022-08-12T16:54:49.993Z,27.08
2022-08-12T16:57:17.091Z,26.99
2022-08-12T16:59:53.336Z,26.92
2022-08-12T17:02:33.927Z,26.80
2022-08-12T17:05:04.264Z,26.73
2022-08-12T17:07:36.763Z,26.78
2022-08-12T17:10:12.000Z,26.73
2022-08-12T17:12:39.354Z,26.79
2022-08-12T17:15:50.752Z,26.80
2022-08-12T17:18:42.414Z,26.82
2022-08-12T18:07:01.610Z,25.90
2022-08-12T18:09:32.361Z,25.85
2022-08-12T18:12:24.706Z,25.79
2022-08-12T18:14:58.459Z,25.69
2022-08-12T18:17:27.220Z,25.62
2022-08-12T18:20:05.082Z,25.62
2022-08-12T18:22:35.736Z,25.56
2022-08-12T18:28:54.533Z,25.40
2022-08-12T18:31:43.968Z,25.38
2022-08-12T18:34:12.205Z,25.22
2022-08-12T18:36:39.321Z,25.25
2022-08-12T18:39:19.508Z,25.14
2022-08-12T18:41:47.036Z,25.07
2022-08-12T18:44:13.823Z,24.89
2022-08-12T18:46:46.719Z,24.83
2022-08-12T18:49:31.840Z,24.83
2022-08-12T18:52:04.693Z,24.81
2022-08-12T18:54:35.045Z,24.66
2022-08-12T18:57:07.095Z,24.54
2022-08-12T19:00:00.087Z,24.49
2022-08-12T19:02:32.048Z,24.33
2022-08-12T19:04:58.983Z,24.30
2022-08-12T19:07:29.666Z,24.18
2022-08-12T19:10:13.787Z,24.20
2022-08-12T19:13:00.567Z,24.06
2022-08-12T19:15:29.912Z,24.08
2022-08-12T19:18:01.146Z,24.01
2022-08-12T19:20:30.046Z,23.88
2022-08-12T19:23:02.219Z,23.91
2022-08-12T19:26:00.673Z,23.74
2022-08-12T19:28:30.194Z,23.80
2022-08-12T19:31:56.747Z,23.72
2022-08-12T19:37:20.376Z,23.57
2022-08-12T19:40:08.694Z,23.57
2022-08-12T19:42:42.747Z,23.54
2022-08-12T19:45:13.959Z,23.50
2022-08-12T19:47:43.445Z,23.48
2022-08-12T19:50:11.105Z,23.48
2022-08-12T19:52:40.990Z,23.50
2022-08-12T19:55:11.644Z,23.59
2022-08-12T20:03:59.300Z,23.53
2022-08-12T20:06:27.723Z,23.58
2022-08-12T20:08:57.222Z,23.58
2022-08-12T20:12:13.790Z,23.52
2022-08-12T20:14:18.410Z,23.53
2022-08-12T20:16:57.477Z,23.53
2022-08-12T20:20:05.687Z,23.45
2022-08-12T20:22:24.837Z,23.40
2022-08-12T20:25:02.010Z,23.36
2022-08-12T20:28:04.060Z,23.32
2022-08-12T20:30:20.762Z,23.37
2022-08-12T20:33:18.336Z,23.38
2022-08-12T20:36:06.579Z,23.36
2022-08-12T20:38:32.921Z,23.32
2022-08-12T20:41:00.024Z,23.29
2022-08-12T20:43:28.067Z,23.15
2022-08-12T20:45:58.379Z,22.97
2022-08-12T20:48:26.206Z,22.76
2022-08-12T20:50:56.296Z,22.53
2022-08-12T20:53:33.135Z,22.37
2022-08-12T20:56:30.911Z,22.23
2022-08-12T20:59:01.084Z,22.08
2022-08-12T21:01:36.592Z,21.97
2022-08-12T21:04:31.897Z,21.85
2022-08-12T21:07:08.594Z,21.71
2022-08-12T21:09:40.677Z,21.44
2022-08-12T21:12:28.001Z,21.24
2022-08-12T21:15:17.590Z,21.10
2022-08-12T21:18:07.896Z,21.00
2022-08-12T21:20:35.936Z,20.85
2022-08-12T21:23:05.714Z,20.81
2022-08-12T21:25:35.820Z,20.79
2022-08-12T21:28:11.364Z,20.70
2022-08-12T21:30:54.831Z,20.66
2022-08-12T21:33:30.790Z,20.63
2022-08-12T21:35:58.194Z,20.54
2022-08-12T21:38:34.399Z,20.51
2022-08-12T21:41:07.042Z,20.40
2022-08-12T21:43:45.081Z,20.34
2022-08-12T21:46:34.660Z,20.28
2022-08-12T21:49:04.945Z,20.21
2022-08-12T21:51:50.019Z,20.09
2022-08-12T21:54:23.088Z,20.00
2022-08-12T21:56:55.830Z,19.88
2022-08-12T21:59:22.768Z,19.81
2022-08-12T22:01:49.735Z,19.73
2022-08-12T22:04:36.256Z,19.69
2022-08-12T22:07:03.157Z,19.64
2022-08-12T22:09:43.029Z,19.49
2022-08-12T22:12:28.545Z,19.43
2022-08-12T22:14:55.041Z,19.33
2022-08-12T22:17:21.480Z,19.36
2022-08-12T22:19:50.530Z,19.31
2022-08-12T22:22:17.093Z,19.28
2022-08-12T22:24:47.545Z,19.21
2022-08-12T22:27:31.637Z,19.18
2022-08-12T22:30:19.788Z,19.01
2022-08-12T22:32:51.559Z,18.89
2022-08-12T22:35:55.569Z,18.91
2022-08-12T22:38:23.932Z,18.87
2022-08-12T22:40:57.425Z,18.89
2022-08-12T22:44:00.656Z,18.87
2022-08-12T22:46:52.986Z,18.89
2022-08-12T22:49:36.899Z,18.86
2022-08-12T22:52:13.398Z,18.86
2022-08-12T22:54:59.930Z,18.80
2022-08-12T22:57:49.121Z,18.66
2022-08-12T23:00:27.299Z,18.51
2022-08-12T23:03:02.751Z,18.36
2022-08-12T23:05:57.700Z,18.41
2022-08-12T23:08:17.906Z,18.40
2022-08-12T23:10:45.143Z,18.43
2022-08-12T23:13:43.374Z,18.39
2022-08-12T23:16:10.206Z,18.39
2022-08-12T23:18:54.177Z,18.36
2022-08-12T23:21:24.393Z,18.37
2022-08-12T23:24:08.979Z,18.33
2022-08-12T23:26:55.182Z,18.25
2022-08-12T23:29:25.761Z,18.28
2022-08-12T23:32:03.581Z,18.35
2022-08-12T23:34:34.419Z,18.31
2022-08-12T23:37:00.882Z,18.13
2022-08-12T23:40:13.345Z,18.06
2022-08-12T23:42:16.561Z,17.97
2022-08-12T23:44:43.979Z,17.95
2022-08-12T23:47:11.610Z,17.86
2022-08-12T23:49:58.021Z,17.78
2022-08-12T23:52:34.081Z,17.70
2022-08-12T23:55:23.554Z,17.72
2022-08-12T23:57:51.111Z,17.66
